createdAt,value
2023-06-11T00:01:45.658Z,97800.81
2023-06-11T00:06:48.103Z,97811.66
2023-06-11T00:11:50.452Z,97804.66
2023-06-11T00:16:52.804Z,97798.50
2023-06-11T00:21:57.432Z,97796.28
2023-06-11T00:27:02.868Z,97800.97
2023-06-11T00:32:05.718Z,97798.78
2023-06-11T00:37:08.056Z,97795.44
2023-06-11T00:42:11.586Z,97792.28
2023-06-11T00:47:16.348Z,97792.69
2023-06-11T00:52:19.777Z,97787.47
2023-06-11T00:57:26.242Z,97794.41
2023-06-11T01:02:40.611Z,97805.19
2023-06-11T01:07:51.927Z,97801.63
2023-06-11T01:13:02.710Z,97801.91
2023-06-11T01:18:20.539Z,97797.19
2023-06-11T01:23:42.372Z,97801.72
2023-06-11T01:28:51.268Z,97801.81
2023-06-11T01:33:54.344Z,97810.00
2023-06-11T01:39:00.244Z,97806.47
2023-06-11T01:44:30.634Z,97807.31
2023-06-11T01:49:33.029Z,97809.00
2023-06-11T01:54:35.668Z,97799.41
2023-06-11T01:59:37.865Z,97802.34
2023-06-11T02:04:40.051Z,97803.94
2023-06-11T02:09:42.392Z,97796.81
2023-06-11T02:14:44.633Z,97799.81
2023-06-11T02:19:46.778Z,97799.84
2023-06-11T02:24:49.116Z,97802.06
2023-06-11T02:29:51.584Z,97808.47
2023-06-11T02:34:53.891Z,97818.78
2023-06-11T02:39:56.297Z,97816.59
2023-06-11T02:44:58.489Z,97817.03
2023-06-11T02:50:00.980Z,97820.69
2023-06-11T02:55:03.463Z,97825.88
2023-06-11T03:00:07.384Z,97827.25
2023-06-11T03:05:10.153Z,97831.53
2023-06-11T03:10:13.672Z,97838.88
2023-06-11T03:15:16.082Z,97849.03
2023-06-11T03:25:20.606Z,97842.28
2023-06-11T03:30:22.783Z,97854.31
2023-06-11T03:35:25.224Z,97858.84
2023-06-11T03:40:28.457Z,97849.53
2023-06-11T03:45:32.008Z,97858.72
2023-06-11T03:50:34.890Z,97860.38
2023-06-11T03:55:37.409Z,97863.09
2023-06-11T04:00:40.662Z,97863.78
2023-06-11T04:05:43.714Z,97865.56
2023-06-11T04:10:46.561Z,97873.44
2023-06-11T04:15:48.791Z,97875.16
2023-06-11T04:20:51.181Z,97886.53
2023-06-11T04:25:56.545Z,97887.53
2023-06-11T04:31:01.113Z,97890.06
2023-06-11T04:36:09.938Z,97884.25
2023-06-11T04:41:13.554Z,97886.75
2023-06-11T04:46:17.650Z,97878.84
2023-06-11T04:51:21.866Z,97881.97
2023-06-11T04:56:27.048Z,97881.94
2023-06-11T05:01:31.699Z,97880.69
2023-06-11T05:06:35.648Z,97882.63
2023-06-11T05:11:45.505Z,97884.63
2023-06-11T05:16:51.829Z,97891.13
2023-06-11T05:21:54.461Z,97895.16
2023-06-11T05:26:57.808Z,97896.56
2023-06-11T05:32:01.817Z,97902.34
2023-06-11T05:37:05.443Z,97894.50
2023-06-11T05:42:08.785Z,97888.00
2023-06-11T05:47:13.188Z,97900.84
2023-06-11T05:52:15.506Z,97906.38
2023-06-11T05:57:24.272Z,97904.41
2023-06-11T06:02:30.024Z,97915.91
2023-06-11T06:07:34.554Z,97916.88
2023-06-11T06:12:36.770Z,97912.16
2023-06-11T06:17:39.880Z,97932.06
2023-06-11T06:22:42.701Z,97925.25
2023-06-11T06:27:45.097Z,97926.56
2023-06-11T06:32:47.675Z,97932.09
2023-06-11T06:37:50.601Z,97939.13
2023-06-11T06:42:52.908Z,97938.63
2023-06-11T06:48:03.374Z,97936.13
2023-06-11T06:53:06.255Z,97933.63
2023-06-11T06:58:08.514Z,97937.75
2023-06-11T07:03:13.518Z,97932.88
2023-06-11T07:08:16.273Z,97935.63
2023-06-11T07:13:21.446Z,97932.94
2023-06-11T07:18:23.943Z,97931.56
2023-06-11T07:23:29.177Z,97934.28
2023-06-11T07:28:31.969Z,97929.59
2023-06-11T07:33:35.215Z,97934.19
2023-06-11T07:38:37.766Z,97932.25
2023-06-11T07:43:40.712Z,97931.88
2023-06-11T07:48:46.426Z,97939.09
2023-06-11T07:53:48.981Z,97951.06
2023-06-11T07:58:51.338Z,97942.28
2023-06-11T08:03:53.564Z,97944.19
2023-06-11T08:08:57.117Z,97939.09
2023-06-11T08:13:59.314Z,97941.44
2023-06-11T08:19:01.810Z,97930.47
2023-06-11T08:24:05.078Z,97926.00
2023-06-11T08:29:16.835Z,97926.50
2023-06-11T08:34:20.248Z,97931.38
2023-06-11T08:39:22.440Z,97927.94
2023-06-11T08:44:27.244Z,97920.31
2023-06-11T08:49:31.703Z,97910.72
2023-06-11T08:54:34.177Z,97913.75
2023-06-11T08:59:36.380Z,97917.81
2023-06-11T09:04:43.051Z,97914.34
2023-06-11T09:09:45.324Z,97917.47
2023-06-11T09:14:53.746Z,97916.69
2023-06-11T09:19:57.389Z,97907.38
2023-06-11T09:25:04.992Z,97898.63
2023-06-11T09:30:13.000Z,97913.66
2023-06-11T09:35:20.200Z,97914.47
2023-06-11T09:40:25.185Z,97898.09
2023-06-11T09:45:27.796Z,97906.88
2023-06-11T09:50:34.285Z,97900.50
2023-06-11T09:55:37.051Z,97913.06
2023-06-11T10:00:39.676Z,97908.81
2023-06-11T10:05:42.319Z,97898.34
2023-06-11T10:10:52.881Z,97892.47
2023-06-11T10:15:55.333Z,97894.41
2023-06-11T10:21:06.019Z,97903.34
2023-06-11T10:26:13.562Z,97906.66
2023-06-11T10:31:41.062Z,97897.28
2023-06-11T10:36:43.383Z,97904.81
2023-06-11T10:41:45.959Z,97902.69
2023-06-11T10:46:54.668Z,97903.13
2023-06-11T10:51:57.324Z,97891.97
2023-06-11T10:57:04.475Z,97901.13
2023-06-11T11:02:13.510Z,97901.63
2023-06-11T11:07:16.060Z,97895.69
2023-06-11T11:12:18.308Z,97896.50
2023-06-11T11:17:20.614Z,97896.78
2023-06-11T11:22:22.856Z,97889.00
2023-06-11T11:27:25.037Z,97890.53
2023-06-11T11:32:35.576Z,97879.53
2023-06-11T11:37:37.928Z,97879.06
2023-06-11T11:42:50.826Z,97881.47
2023-06-11T11:47:53.793Z,97876.06
2023-06-11T11:53:16.635Z,97867.03
2023-06-11T11:58:18.986Z,97857.28
2023-06-11T12:03:23.660Z,97865.84
2023-06-11T12:08:28.324Z,97859.84
2023-06-11T12:13:31.309Z,97850.97
2023-06-11T12:18:34.829Z,97834.94
2023-06-11T12:23:37.024Z,97851.56
2023-06-11T12:28:39.299Z,97850.75
2023-06-11T12:33:41.479Z,97844.84
2023-06-11T12:38:43.748Z,97828.66
2023-06-11T12:43:45.914Z,97821.03
2023-06-11T12:48:48.052Z,97828.19
2023-06-11T12:53:53.934Z,97810.50
2023-06-11T12:58:58.418Z,97813.66
2023-06-11T13:04:00.871Z,97825.09
2023-06-11T13:09:04.051Z,97812.09
2023-06-11T13:14:06.406Z,97818.38
2023-06-11T13:19:09.345Z,97810.94
2023-06-11T13:24:11.750Z,97809.03
2023-06-11T13:29:14.072Z,97799.38
2023-06-11T13:34:16.431Z,97797.13
2023-06-11T13:39:18.830Z,97783.16
2023-06-11T13:44:21.066Z,97793.00
2023-06-11T13:49:25.183Z,97790.72
2023-06-11T13:54:29.675Z,97797.28
2023-06-11T13:59:32.952Z,97789.25
2023-06-11T14:04:35.168Z,97787.09
2023-06-11T14:09:37.410Z,97777.31
2023-06-11T14:14:39.632Z,97766.25
2023-06-11T14:19:41.799Z,97772.72
2023-06-11T14:24:44.318Z,97765.88
2023-06-11T14:29:46.521Z,97758.91
2023-06-11T14:34:48.681Z,97752.03
2023-06-11T14:39:50.941Z,97744.50
2023-06-11T14:44:53.197Z,97735.97
2023-06-11T14:49:55.462Z,97729.72
2023-06-11T14:54:59.768Z,97738.16
2023-06-11T15:00:05.492Z,97736.13
2023-06-11T15:05:08.728Z,97731.81
2023-06-11T15:10:11.988Z,97732.09
2023-06-11T15:15:14.474Z,97739.56
2023-06-11T15:20:16.777Z,97719.91
2023-06-11T15:25:19.157Z,97727.38
2023-06-11T15:30:21.544Z,97715.19
2023-06-11T15:35:23.773Z,97710.28
2023-06-11T15:40:25.943Z,97710.63
2023-06-11T15:45:28.337Z,97721.09
2023-06-11T15:50:30.729Z,97720.34
2023-06-11T15:55:33.135Z,97716.78
2023-06-11T16:00:35.455Z,97720.72
2023-06-11T16:05:38.888Z,97712.13
2023-06-11T16:10:41.158Z,97720.34
2023-06-11T16:15:45.113Z,97723.72
2023-06-11T16:20:47.551Z,97709.84
2023-06-11T16:25:49.939Z,97726.28
2023-06-11T16:30:52.169Z,97712.84
2023-06-11T16:35:54.266Z,97719.25
2023-06-11T16:40:56.880Z,97715.09
2023-06-11T16:45:59.142Z,97709.44
2023-06-11T16:51:01.559Z,97710.16
2023-06-11T16:56:04.290Z,97716.69
2023-06-11T17:01:06.551Z,97707.19
2023-06-11T17:06:08.729Z,97712.03
2023-06-11T17:11:11.212Z,97702.19
2023-06-11T17:16:13.449Z,97708.09
2023-06-11T17:21:15.812Z,97707.19
2023-06-11T17:26:17.993Z,97713.03
2023-06-11T17:31:20.428Z,97711.00
2023-06-11T17:36:22.638Z,97695.06
2023-06-11T17:41:25.049Z,97696.88
2023-06-11T17:46:27.334Z,97698.72
2023-06-11T17:51:29.611Z,97703.63
2023-06-11T17:56:32.113Z,97692.31
2023-06-11T18:01:36.369Z,97690.00
2023-06-11T18:06:39.430Z,97696.00
2023-06-11T18:11:42.661Z,97694.81
2023-06-11T18:16:44.873Z,97700.41
2023-06-11T18:21:47.119Z,97699.72
2023-06-11T18:26:49.427Z,97707.44
2023-06-11T18:31:51.662Z,97702.69
2023-06-11T18:36:53.868Z,97697.78
2023-06-11T18:41:56.374Z,97699.75
2023-06-11T18:47:02.249Z,97712.25
2023-06-11T18:52:06.503Z,97717.66
2023-06-11T18:57:09.747Z,97720.69
2023-06-11T19:02:11.958Z,97730.44
2023-06-11T19:07:16.513Z,97722.97
2023-06-11T19:12:19.179Z,97728.34
2023-06-11T19:17:21.626Z,97729.63
2023-06-11T19:22:23.933Z,97738.38
2023-06-11T19:27:29.641Z,97748.44
2023-06-11T19:32:32.272Z,97750.19
2023-06-11T19:37:35.938Z,97754.28
2023-06-11T19:42:38.556Z,97770.44
2023-06-11T19:47:41.006Z,97776.09
2023-06-11T19:52:43.342Z,97784.94
2023-06-11T19:57:45.873Z,97776.34
2023-06-11T20:02:49.204Z,97791.25
2023-06-11T20:07:51.436Z,97784.72
2023-06-11T20:12:53.654Z,97794.56
2023-06-11T20:17:55.921Z,97795.13
2023-06-11T20:22:58.269Z,97793.75
2023-06-11T20:28:00.593Z,97802.78
2023-06-11T20:33:03.417Z,97804.69
2023-06-11T20:38:05.815Z,97807.59
2023-06-11T20:43:08.180Z,97805.78
2023-06-11T20:48:10.401Z,97814.53
2023-06-11T20:53:24.114Z,97808.91
2023-06-11T20:58:35.203Z,97802.09
2023-06-11T21:03:37.423Z,97798.44
2023-06-11T21:08:39.600Z,97800.31
2023-06-11T21:13:41.833Z,97800.47
2023-06-11T21:18:44.035Z,97798.19
2023-06-11T21:23:46.352Z,97798.16
2023-06-11T21:28:48.873Z,97791.44
2023-06-11T21:33:51.010Z,97790.66
2023-06-11T21:38:53.186Z,97788.91
2023-06-11T21:43:55.473Z,97795.06
2023-06-11T21:48:59.321Z,97796.88
2023-06-11T21:54:01.897Z,97798.34
2023-06-11T21:59:04.232Z,97800.44
2023-06-11T22:04:06.532Z,97785.56
2023-06-11T22:09:14.870Z,97801.44
2023-06-11T22:14:17.219Z,97803.78
2023-06-11T22:19:20.030Z,97795.19
2023-06-11T22:24:22.588Z,97795.75
2023-06-11T22:29:24.760Z,97799.56
2023-06-11T22:34:26.929Z,97798.44
2023-06-11T22:39:29.172Z,97808.53
2023-06-11T22:44:31.526Z,97802.31
2023-06-11T22:49:34.415Z,97797.53
2023-06-11T22:54:39.409Z,97801.00
2023-06-11T22:59:41.899Z,97806.00
2023-06-11T23:04:46.393Z,97802.41
2023-06-11T23:09:48.881Z,97797.09
2023-06-11T23:14:51.097Z,97806.53
2023-06-11T23:19:53.242Z,97793.75
2023-06-11T23:24:55.541Z,97800.22
2023-06-11T23:29:57.928Z,97796.41
2023-06-11T23:35:01.565Z,97795.28
2023-06-11T23:40:05.668Z,97800.06
2023-06-11T23:45:08.400Z,97794.63
2023-06-11T23:50:11.481Z,97787.00
2023-06-11T23:55:15.099Z,97787.09
